3IN4 weather

Johnson Airport
Markle, Indiana, United States

Public forecast

Using degrees Fahrenheit for public forecast. Weather courtesy of forecast.io.

METAR (pilot weather report)

Closest report is Huntington Municipal Airport, 7.1 nm (13.2 km) NW. Retrieved 2019/04/26 15:35 UTC (0 seconds ago):

KHHG 261535Z AUTO 31010G17KT 10SM BKN024 BKN032 OVC041 13/08 A2969 RMK AO2 T01250079

TAF (pilot weather forecast)

Closest forecast is Fort Wayne International Airport, 13.9 nm (25.7 km) NNE. Retrieved 2019/04/26 12:33 UTC (3 hours ago):

TAF KFWA 261130Z 2612/2712 33015G25KT 5SM SHRA BR OVC012 FM261400 33010G20KT P6SM SCT020 BKN035 FM261700 34022G32KT P6SM SCT250 FM270000 31012KT P6SM SCT250